createdAt,value
2019-03-16T00:01:56.251Z,98840.61
2019-03-16T00:04:21.842Z,98844.81
2019-03-16T00:06:57.181Z,98834.45
2019-03-16T00:09:32.876Z,98830.39
2019-03-16T00:12:07.733Z,98832.63
2019-03-16T00:14:43.347Z,98826.91
2019-03-16T00:17:23.048Z,98828.83
2019-03-16T00:19:54.661Z,98825.16
2019-03-16T00:22:30.911Z,98815.88
2019-03-16T00:25:08.083Z,98817.49
2019-03-16T00:27:43.195Z,98809.09
2019-03-16T00:30:18.432Z,98804.67
2019-03-16T00:32:54.235Z,98800.47
2019-03-16T00:35:27.833Z,98808.87
2019-03-16T00:38:02.011Z,98806.41
2019-03-16T00:40:37.872Z,98810.47
2019-03-16T00:43:11.110Z,98813.73
2019-03-16T00:45:47.293Z,98808.64
2019-03-16T00:48:26.410Z,98818.80
2019-03-16T00:51:02.661Z,98819.33
2019-03-16T00:53:35.977Z,98810.48
2019-03-16T00:56:13.188Z,98821.46
2019-03-16T00:58:48.632Z,98820.83
2019-03-16T01:01:24.559Z,98826.78
2019-03-16T01:04:01.322Z,98826.24
2019-03-16T01:06:36.243Z,98827.67
2019-03-16T01:09:13.934Z,98824.77
2019-03-16T01:11:49.761Z,98821.11
2019-03-16T01:14:23.733Z,98821.30
2019-03-16T01:16:58.648Z,98826.39
2019-03-16T01:19:33.542Z,98814.83
2019-03-16T01:22:06.798Z,98814.30
2019-03-16T01:24:40.432Z,98804.53
2019-03-16T01:27:14.497Z,98805.16
2019-03-16T01:29:50.639Z,98807.56
2019-03-16T01:32:25.463Z,98812.82
2019-03-16T01:34:59.300Z,98804.30
2019-03-16T01:37:32.319Z,98804.33
2019-03-16T01:40:08.216Z,98811.81
2019-03-16T01:42:41.344Z,98806.86
2019-03-16T01:45:17.689Z,98805.27
2019-03-16T01:47:54.711Z,98812.21
2019-03-16T01:50:29.127Z,98815.05
2019-03-16T01:53:05.116Z,98803.68
2019-03-16T01:55:40.543Z,98807.35
2019-03-16T01:58:15.664Z,98809.55
2019-03-16T02:00:50.726Z,98800.99
2019-03-16T02:03:27.413Z,98796.24
2019-03-16T02:06:00.330Z,98803.48
2019-03-16T02:08:34.709Z,98805.00
2019-03-16T02:11:10.130Z,98806.91
2019-03-16T02:13:43.829Z,98801.62
2019-03-16T02:16:18.911Z,98799.88
2019-03-16T02:18:53.465Z,98798.71
2019-03-16T02:21:36.331Z,98795.28
2019-03-16T02:24:10.817Z,98789.02
2019-03-16T02:26:44.235Z,98791.42
2019-03-16T02:29:17.867Z,98789.58
2019-03-16T02:31:56.401Z,98792.53
2019-03-16T02:34:30.270Z,98793.91
2019-03-16T02:37:04.456Z,98800.00
2019-03-16T02:39:40.650Z,98797.37
2019-03-16T02:42:14.747Z,98803.55
2019-03-16T02:44:49.661Z,98805.84
2019-03-16T02:47:23.218Z,98809.61
2019-03-16T02:49:56.189Z,98799.95
2019-03-16T02:52:27.946Z,98804.53
2019-03-16T02:54:59.979Z,98808.09
2019-03-16T02:57:31.805Z,98805.77
2019-03-16T03:00:03.520Z,98813.03
2019-03-16T03:02:35.604Z,98815.45
2019-03-16T03:05:08.704Z,98818.98
2019-03-16T03:07:41.062Z,98828.11
2019-03-16T03:10:13.157Z,98821.68
2019-03-16T03:12:45.161Z,98820.09
2019-03-16T03:15:16.708Z,98821.78
2019-03-16T03:17:48.715Z,98821.97
2019-03-16T03:20:20.879Z,98820.10
2019-03-16T03:22:52.875Z,98823.27
2019-03-16T03:25:24.835Z,98825.32
2019-03-16T03:27:56.790Z,98821.28
2019-03-16T03:30:28.678Z,98822.91
2019-03-16T03:33:00.340Z,98815.05
2019-03-16T03:35:32.144Z,98823.05
2019-03-16T03:38:03.931Z,98820.55
2019-03-16T03:40:36.145Z,98823.89
2019-03-16T03:43:08.135Z,98814.48
2019-03-16T03:45:39.742Z,98814.70
2019-03-16T03:48:12.117Z,98815.80
2019-03-16T03:50:43.992Z,98823.08
2019-03-16T03:53:15.887Z,98816.29
2019-03-16T03:55:47.612Z,98825.86
2019-03-16T03:58:19.785Z,98820.94
2019-03-16T04:00:52.133Z,98831.80
2019-03-16T04:03:31.506Z,98829.41
2019-03-16T04:06:03.420Z,98834.05
2019-03-16T04:08:35.483Z,98837.19
2019-03-16T04:11:07.788Z,98841.09
2019-03-16T04:13:39.516Z,98852.08
2019-03-16T04:16:11.130Z,98849.39
2019-03-16T04:18:42.970Z,98855.34
2019-03-16T04:21:15.387Z,98856.17
2019-03-16T04:23:47.455Z,98858.20
2019-03-16T04:26:19.234Z,98860.17
2019-03-16T04:28:51.073Z,98857.79
2019-03-16T04:31:23.280Z,98850.44
2019-03-16T04:33:55.025Z,98847.52
2019-03-16T04:36:27.064Z,98849.48
2019-03-16T04:38:58.654Z,98855.25
2019-03-16T04:41:30.266Z,98852.26
2019-03-16T04:44:05.181Z,98846.52
2019-03-16T04:46:37.336Z,98853.27
2019-03-16T04:49:09.148Z,98852.71
2019-03-16T04:51:41.083Z,98851.33
2019-03-16T04:54:16.004Z,98856.36
2019-03-16T04:56:48.007Z,98857.66
2019-03-16T04:59:19.768Z,98869.20
2019-03-16T05:01:51.570Z,98869.20
2019-03-16T05:04:41.911Z,98876.08
2019-03-16T05:07:05.719Z,98872.53
2019-03-16T05:09:37.339Z,98870.85
2019-03-16T05:12:09.285Z,98874.28
2019-03-16T05:14:41.995Z,98873.63
2019-03-16T05:17:14.790Z,98878.55
2019-03-16T05:19:46.463Z,98879.19
2019-03-16T05:22:18.443Z,98885.72
2019-03-16T05:24:50.398Z,98883.50
2019-03-16T05:27:23.030Z,98881.66
2019-03-16T05:29:55.121Z,98877.84
2019-03-16T05:32:27.740Z,98878.31
2019-03-16T05:35:02.357Z,98880.37
2019-03-16T05:37:35.682Z,98877.04
2019-03-16T05:40:07.644Z,98883.92
2019-03-16T05:42:40.778Z,98885.76
2019-03-16T05:45:12.655Z,98886.47
2019-03-16T05:47:45.525Z,98884.03
2019-03-16T05:50:17.872Z,98884.42
2019-03-16T05:52:49.964Z,98889.69
2019-03-16T05:55:24.945Z,98893.17
2019-03-16T05:57:57.165Z,98896.96
2019-03-16T06:00:28.924Z,98899.61
2019-03-16T06:03:01.012Z,98901.36
2019-03-16T06:05:33.351Z,98905.45
2019-03-16T06:08:05.520Z,98915.70
2019-03-16T06:10:37.635Z,98911.67
2019-03-16T06:13:09.780Z,98911.78
2019-03-16T06:15:41.818Z,98910.66
2019-03-16T06:18:14.022Z,98907.67
2019-03-16T06:20:46.380Z,98904.69
2019-03-16T06:23:18.131Z,98908.25
2019-03-16T06:25:56.527Z,98911.03
2019-03-16T06:28:28.332Z,98921.73
2019-03-16T06:31:00.015Z,98921.61
2019-03-16T06:33:31.971Z,98923.12
2019-03-16T06:36:07.172Z,98939.66
2019-03-16T06:38:38.915Z,98938.09
2019-03-16T06:41:10.763Z,98939.72
2019-03-16T06:43:42.567Z,98949.75
2019-03-16T06:46:17.441Z,98952.09
2019-03-16T06:48:49.682Z,98954.67
2019-03-16T06:51:21.838Z,98954.24
2019-03-16T06:53:53.651Z,98957.08
2019-03-16T06:56:31.423Z,98960.84
2019-03-16T06:59:03.251Z,98957.02
2019-03-16T07:01:35.485Z,98951.73
2019-03-16T07:04:07.545Z,98959.56
2019-03-16T07:06:39.593Z,98960.75
2019-03-16T07:09:11.727Z,98959.11
2019-03-16T07:11:43.585Z,98967.74
2019-03-16T07:14:16.245Z,98970.64
2019-03-16T07:17:01.446Z,98967.38
2019-03-16T07:19:23.077Z,98974.11
2019-03-16T07:21:55.089Z,98978.89
2019-03-16T07:24:26.913Z,98979.52
2019-03-16T07:26:58.972Z,98983.46
2019-03-16T07:29:30.925Z,98983.34
2019-03-16T07:32:03.193Z,98989.09
2019-03-16T07:34:36.257Z,98993.83
2019-03-16T07:37:08.032Z,98987.86
2019-03-16T07:39:40.104Z,98996.37
2019-03-16T07:42:12.179Z,98993.61
2019-03-16T07:44:44.033Z,98992.44
2019-03-16T07:47:19.498Z,98999.95
2019-03-16T07:49:51.480Z,99002.78
2019-03-16T07:52:23.437Z,99007.65
2019-03-16T07:54:56.731Z,99010.44
2019-03-16T07:57:39.483Z,99014.25
2019-03-16T08:00:02.366Z,99012.41
2019-03-16T08:02:34.234Z,99016.34
2019-03-16T08:05:17.589Z,99020.87
2019-03-16T08:07:40.302Z,99022.99
2019-03-16T08:10:12.525Z,99025.37
2019-03-16T08:12:44.481Z,99028.97
2019-03-16T08:15:17.368Z,99026.89
2019-03-16T08:17:49.319Z,99032.28
2019-03-16T08:20:21.305Z,99030.46
2019-03-16T08:22:53.133Z,99036.94
2019-03-16T08:25:25.406Z,99023.71
2019-03-16T08:28:04.088Z,99029.31
2019-03-16T08:30:36.136Z,99024.00
2019-03-16T08:33:08.307Z,99029.31
2019-03-16T08:35:40.593Z,99026.89
2019-03-16T08:38:12.398Z,99031.70
2019-03-16T08:40:45.384Z,99022.05
2019-03-16T08:43:17.485Z,99023.84
2019-03-16T08:45:49.562Z,99018.34
2019-03-16T08:48:23.169Z,99031.73
2019-03-16T08:50:55.045Z,99023.34
2019-03-16T08:53:27.604Z,99022.81
2019-03-16T08:55:59.414Z,99024.78
2019-03-16T08:58:34.245Z,99035.92
2019-03-16T09:01:06.151Z,99042.35
2019-03-16T09:03:43.579Z,99036.69
2019-03-16T09:06:11.985Z,99041.95
2019-03-16T09:08:43.964Z,99033.25
2019-03-16T09:11:16.282Z,99038.16
2019-03-16T09:13:48.222Z,99033.47
2019-03-16T09:16:20.353Z,99037.67
2019-03-16T09:18:58.280Z,99031.48
2019-03-16T09:21:30.383Z,99032.58
2019-03-16T09:24:02.721Z,99032.10
2019-03-16T09:26:34.289Z,99042.45
2019-03-16T09:29:14.795Z,99030.83
2019-03-16T09:31:39.856Z,99025.77
2019-03-16T09:34:12.511Z,99033.75
2019-03-16T09:36:44.746Z,99027.75
2019-03-16T09:39:19.827Z,99026.00
2019-03-16T09:41:52.216Z,99028.62
2019-03-16T09:44:24.413Z,99023.16
2019-03-16T09:46:57.929Z,99026.97
2019-03-16T09:49:30.105Z,99028.01
2019-03-16T09:52:02.189Z,99035.26
2019-03-16T09:54:34.327Z,99041.53
2019-03-16T09:57:06.069Z,99044.20
2019-03-16T09:59:42.521Z,99040.50
2019-03-16T10:02:14.311Z,99045.05
2019-03-16T10:04:45.980Z,99035.13
2019-03-16T10:07:18.366Z,99037.88
2019-03-16T10:09:53.009Z,99049.38
2019-03-16T10:12:25.246Z,99043.25
2019-03-16T10:15:03.354Z,99032.63
2019-03-16T10:17:35.903Z,99038.63
2019-03-16T10:20:08.746Z,99045.99
2019-03-16T10:22:42.081Z,99041.63
2019-03-16T10:25:14.304Z,99042.47
2019-03-16T10:27:52.267Z,99050.03
2019-03-16T10:30:24.177Z,99052.17
2019-03-16T10:32:56.483Z,99049.44
2019-03-16T10:35:29.055Z,99050.17
2019-03-16T10:38:01.149Z,99054.15
2019-03-16T10:40:33.760Z,99050.34
2019-03-16T10:43:05.905Z,99053.45
2019-03-16T10:45:39.329Z,99048.43
2019-03-16T10:48:11.185Z,99057.16
2019-03-16T10:50:43.424Z,99047.65
2019-03-16T10:53:15.112Z,99054.56
2019-03-16T10:55:47.746Z,99056.41
2019-03-16T10:58:20.111Z,99057.59
2019-03-16T11:00:52.124Z,99067.19
2019-03-16T11:03:24.080Z,99051.27
2019-03-16T11:05:56.064Z,99058.23
2019-03-16T11:08:28.336Z,99061.38
2019-03-16T11:11:00.008Z,99067.36
2019-03-16T11:13:32.568Z,99055.93
2019-03-16T11:16:04.781Z,99067.26
2019-03-16T11:18:37.013Z,99071.68
2019-03-16T11:21:09.459Z,99072.59
2019-03-16T11:23:43.629Z,99074.97
2019-03-16T11:26:16.244Z,99080.81
2019-03-16T11:28:48.809Z,99076.33
2019-03-16T11:31:22.861Z,99075.86
2019-03-16T11:33:55.913Z,99068.17
2019-03-16T11:36:28.628Z,99072.45
2019-03-16T11:39:00.770Z,99070.84
2019-03-16T11:41:32.881Z,99076.79
2019-03-16T11:44:04.759Z,99069.47
2019-03-16T11:46:37.137Z,99072.61
2019-03-16T11:49:09.015Z,99063.52
2019-03-16T11:51:41.166Z,99054.55
2019-03-16T11:54:13.049Z,99065.52
2019-03-16T11:56:45.347Z,99050.51
2019-03-16T11:59:21.889Z,99047.42
2019-03-16T12:01:51.333Z,99059.17
2019-03-16T12:04:24.010Z,99053.67
2019-03-16T12:06:55.708Z,99050.28
2019-03-16T12:09:27.756Z,99051.04
2019-03-16T12:12:02.744Z,99048.41
2019-03-16T12:14:35.239Z,99041.31
2019-03-16T12:17:07.326Z,99031.22
2019-03-16T12:19:39.233Z,99045.42
2019-03-16T12:22:10.874Z,99036.24
2019-03-16T12:24:43.061Z,99044.14
2019-03-16T12:27:14.813Z,99031.68
2019-03-16T12:29:46.540Z,99028.30
2019-03-16T12:32:21.426Z,99023.46
2019-03-16T12:34:53.836Z,99015.19
2019-03-16T12:37:26.145Z,99034.28
2019-03-16T12:39:58.196Z,99024.05
2019-03-16T12:42:33.061Z,99029.72
2019-03-16T12:45:05.349Z,99026.61
2019-03-16T12:47:37.457Z,99022.88
2019-03-16T12:50:09.748Z,99022.61
2019-03-16T12:52:42.432Z,99019.32
2019-03-16T12:55:14.871Z,99020.89
2019-03-16T12:57:48.155Z,99022.73
2019-03-16T13:00:20.758Z,99015.02
2019-03-16T13:02:52.614Z,99017.34
2019-03-16T13:05:24.740Z,99003.06
2019-03-16T13:07:56.827Z,99021.72
2019-03-16T13:10:28.753Z,99015.84
2019-03-16T13:13:02.209Z,99023.82
2019-03-16T13:15:34.298Z,99029.22
2019-03-16T13:18:06.451Z,99010.64
2019-03-16T13:20:38.964Z,99012.51
2019-03-16T13:23:16.752Z,99015.02
2019-03-16T13:25:49.758Z,99012.68
2019-03-16T13:28:21.936Z,99011.89
2019-03-16T13:30:54.050Z,99004.52
2019-03-16T13:33:26.003Z,99016.43
2019-03-16T13:35:58.454Z,99016.98
2019-03-16T13:38:31.132Z,99016.84
2019-03-16T13:41:03.019Z,99014.55
2019-03-16T13:43:38.573Z,99029.11
2019-03-16T13:46:11.586Z,99007.19
2019-03-16T13:48:43.933Z,99003.88
2019-03-16T13:51:15.730Z,99004.30
2019-03-16T13:53:48.172Z,98999.12
2019-03-16T13:56:20.075Z,98994.51
2019-03-16T13:58:52.467Z,98991.17
2019-03-16T14:01:24.660Z,98991.83
2019-03-16T14:03:59.703Z,98990.22
2019-03-16T14:06:32.015Z,98992.81
2019-03-16T14:09:07.431Z,98986.62
2019-03-16T14:11:41.376Z,98995.78
2019-03-16T14:14:13.587Z,98986.72
2019-03-16T14:16:46.088Z,98982.14
2019-03-16T14:19:18.070Z,98991.22
2019-03-16T14:21:50.137Z,98997.22
2019-03-16T14:24:22.212Z,98980.58
2019-03-16T14:26:54.133Z,98976.36
2019-03-16T14:29:26.024Z,98991.36
2019-03-16T14:31:58.194Z,98987.59
2019-03-16T14:34:30.080Z,98974.09
2019-03-16T14:37:01.925Z,98978.75
2019-03-16T14:39:33.892Z,98983.95
2019-03-16T14:42:05.902Z,98983.74
2019-03-16T14:44:38.194Z,98979.84
2019-03-16T14:47:10.602Z,98981.45
2019-03-16T14:49:43.159Z,98985.71
2019-03-16T14:52:15.432Z,98979.89
2019-03-16T14:54:54.191Z,98974.46
2019-03-16T14:57:26.955Z,98977.25
2019-03-16T14:59:59.611Z,98972.16
2019-03-16T15:02:35.002Z,98971.30
2019-03-16T15:05:07.738Z,98980.61
2019-03-16T15:07:39.719Z,98979.25
2019-03-16T15:10:11.836Z,98978.48
2019-03-16T15:12:44.029Z,98980.59
2019-03-16T15:15:16.798Z,98973.90
2019-03-16T15:17:48.866Z,98984.77
2019-03-16T15:20:20.972Z,98978.90
2019-03-16T15:22:53.647Z,98977.72
2019-03-16T15:25:25.842Z,98976.78
2019-03-16T15:27:57.564Z,98981.42
2019-03-16T15:30:29.937Z,98972.47
2019-03-16T15:33:02.569Z,98968.25
2019-03-16T15:35:35.107Z,98969.94
2019-03-16T15:38:07.636Z,98970.64
2019-03-16T15:40:40.121Z,98971.95
2019-03-16T15:43:12.471Z,98970.03
2019-03-16T15:45:44.671Z,98968.83
2019-03-16T15:48:16.637Z,98972.97
2019-03-16T15:50:48.732Z,98984.83
2019-03-16T15:53:20.881Z,98979.81
2019-03-16T15:55:55.782Z,98971.37
2019-03-16T15:58:28.696Z,98978.34
2019-03-16T16:01:03.736Z,98978.45
2019-03-16T16:03:34.523Z,98976.47
2019-03-16T16:06:06.666Z,98978.66
2019-03-16T16:08:38.635Z,98984.83
2019-03-16T16:11:10.620Z,98986.48
2019-03-16T16:13:43.710Z,98986.81
2019-03-16T16:16:19.602Z,98981.45
2019-03-16T16:18:51.604Z,98982.67
2019-03-16T16:21:23.884Z,98988.50
2019-03-16T16:23:55.815Z,98986.34
2019-03-16T16:26:27.874Z,98987.48
2019-03-16T16:29:02.565Z,98995.37
2019-03-16T16:31:35.267Z,98997.02
2019-03-16T16:34:07.223Z,98999.20
2019-03-16T16:36:39.114Z,99000.77
2019-03-16T16:39:14.261Z,99009.62
2019-03-16T16:41:45.840Z,99011.27
2019-03-16T16:44:17.855Z,99008.64
2019-03-16T16:46:50.044Z,99022.04
2019-03-16T16:49:21.639Z,99021.70
2019-03-16T16:51:54.857Z,99026.47
2019-03-16T16:54:27.286Z,99018.97
2019-03-16T16:56:59.370Z,99017.27
2019-03-16T16:59:31.941Z,99026.34
2019-03-16T17:02:04.131Z,99025.76
2019-03-16T17:04:44.019Z,99027.20
2019-03-16T17:07:17.998Z,99035.18
2019-03-16T17:09:51.072Z,99026.00
2019-03-16T17:12:22.974Z,99032.34
2019-03-16T17:14:55.915Z,99031.23
2019-03-16T17:17:35.133Z,99034.72
2019-03-16T17:20:01.789Z,99033.87
2019-03-16T17:22:37.162Z,99036.23
2019-03-16T17:25:08.573Z,99041.71
2019-03-16T17:27:41.015Z,99041.01
2019-03-16T17:30:16.193Z,99046.63
2019-03-16T17:32:48.656Z,99046.36
2019-03-16T17:35:21.617Z,99049.58
2019-03-16T17:37:54.665Z,99051.02
2019-03-16T17:40:26.918Z,99050.43
2019-03-16T17:42:58.915Z,99052.68
2019-03-16T17:45:31.615Z,99055.30
2019-03-16T17:48:04.131Z,99051.87
2019-03-16T17:50:37.225Z,99042.06
2019-03-16T17:53:09.592Z,99039.22
2019-03-16T17:55:41.543Z,99047.09
2019-03-16T17:58:13.276Z,99055.90
2019-03-16T18:00:52.327Z,99057.22
2019-03-16T18:03:24.140Z,99054.22
2019-03-16T18:05:56.591Z,99049.96
2019-03-16T18:08:29.027Z,99052.33
2019-03-16T18:11:01.320Z,99043.27
2019-03-16T18:13:33.269Z,99033.72
2019-03-16T18:16:05.286Z,99036.81
2019-03-16T18:18:37.286Z,99041.72
2019-03-16T18:21:09.767Z,99044.09
2019-03-16T18:23:41.824Z,99045.41
2019-03-16T18:26:14.277Z,99049.44
2019-03-16T18:28:46.186Z,99046.56
2019-03-16T18:31:18.257Z,99051.81
2019-03-16T18:33:50.573Z,99050.59
2019-03-16T18:36:23.124Z,99056.67
2019-03-16T18:38:54.764Z,99052.48
2019-03-16T18:41:28.179Z,99055.70
2019-03-16T18:44:00.298Z,99056.28
2019-03-16T18:46:32.605Z,99056.25
2019-03-16T18:49:04.579Z,99059.71
2019-03-16T18:51:36.913Z,99057.89
2019-03-16T18:54:08.859Z,99055.90
2019-03-16T18:56:40.847Z,99063.13
2019-03-16T18:59:13.019Z,99070.91
2019-03-16T19:01:44.874Z,99075.91
2019-03-16T19:04:16.816Z,99076.49
2019-03-16T19:06:48.968Z,99071.37
2019-03-16T19:09:20.653Z,99076.83
2019-03-16T19:11:53.122Z,99081.73
2019-03-16T19:14:25.087Z,99077.41
2019-03-16T19:16:57.232Z,99078.86
2019-03-16T19:19:29.303Z,99077.08
2019-03-16T19:22:01.618Z,99073.61
2019-03-16T19:24:33.789Z,99067.85
2019-03-16T19:27:06.684Z,99074.52
2019-03-16T19:29:38.603Z,99078.98
2019-03-16T19:32:10.560Z,99077.53
2019-03-16T19:34:43.914Z,99073.39
2019-03-16T19:37:15.919Z,99072.81
2019-03-16T19:39:50.137Z,99076.73
2019-03-16T19:42:22.315Z,99074.83
2019-03-16T19:44:54.266Z,99065.16
2019-03-16T19:47:26.780Z,99069.34
2019-03-16T19:49:59.209Z,99077.91
2019-03-16T19:52:31.824Z,99073.98
2019-03-16T19:55:04.475Z,99081.12
2019-03-16T19:57:36.728Z,99077.31
2019-03-16T20:00:10.737Z,99078.62
2019-03-16T20:02:50.326Z,99091.80
2019-03-16T20:05:17.348Z,99080.13
2019-03-16T20:07:49.578Z,99083.36
2019-03-16T20:10:23.519Z,99096.51
2019-03-16T20:12:55.832Z,99096.13
2019-03-16T20:15:29.149Z,99101.02
2019-03-16T20:18:01.531Z,99100.06
2019-03-16T20:20:33.473Z,99099.27
2019-03-16T20:23:05.281Z,99106.42
2019-03-16T20:25:37.091Z,99103.22
2019-03-16T20:28:09.244Z,99111.73
2019-03-16T20:30:44.439Z,99109.32
2019-03-16T20:33:16.437Z,99109.77
2019-03-16T20:35:49.370Z,99102.51
2019-03-16T20:38:21.772Z,99112.62
2019-03-16T20:40:54.146Z,99112.45
2019-03-16T20:43:26.460Z,99113.94
2019-03-16T20:45:59.733Z,99114.15
2019-03-16T20:48:32.012Z,99116.78
2019-03-16T20:51:07.620Z,99115.75
2019-03-16T20:53:39.357Z,99110.15
2019-03-16T20:56:11.702Z,99109.63
2019-03-16T20:58:43.541Z,99103.22
2019-03-16T21:01:19.509Z,99103.22
2019-03-16T21:03:52.414Z,99098.36
2019-03-16T21:06:24.461Z,99093.38
2019-03-16T21:09:02.948Z,99093.25
2019-03-16T21:11:30.231Z,99090.72
2019-03-16T21:14:02.982Z,99094.42
2019-03-16T21:16:35.886Z,99095.22
2019-03-16T21:19:08.152Z,99095.29
2019-03-16T21:21:40.127Z,99091.94
2019-03-16T21:24:12.554Z,99096.23
2019-03-16T21:26:52.280Z,99096.32
2019-03-16T21:29:18.542Z,99094.41
2019-03-16T21:31:53.177Z,99100.11
2019-03-16T21:34:25.128Z,99097.64
2019-03-16T21:36:58.974Z,99102.47
2019-03-16T21:39:31.448Z,99103.31
2019-03-16T21:42:03.480Z,99095.58
2019-03-16T21:44:35.415Z,99096.45
2019-03-16T21:47:07.684Z,99096.89
2019-03-16T21:49:39.508Z,99093.95
2019-03-16T21:52:11.302Z,99091.12
2019-03-16T21:54:43.197Z,99093.40
2019-03-16T21:57:15.393Z,99100.29
2019-03-16T21:59:48.174Z,99097.33
2019-03-16T22:02:20.983Z,99099.80
2019-03-16T22:04:52.986Z,99102.50
2019-03-16T22:07:25.066Z,99091.56
2019-03-16T22:09:56.975Z,99101.34
2019-03-16T22:12:29.544Z,99094.62
2019-03-16T22:15:01.916Z,99096.31
2019-03-16T22:17:34.078Z,99094.27
2019-03-16T22:20:06.917Z,99090.43
2019-03-16T22:22:42.537Z,99098.98
2019-03-16T22:25:15.149Z,99097.17
2019-03-16T22:27:47.417Z,99100.58
2019-03-16T22:30:19.317Z,99100.31
2019-03-16T22:32:53.852Z,99103.16
2019-03-16T22:35:25.982Z,99098.00
2019-03-16T22:37:57.727Z,99098.50
2019-03-16T22:40:29.428Z,99093.00
2019-03-16T22:43:01.284Z,99085.35
2019-03-16T22:45:33.045Z,99085.93
2019-03-16T22:48:04.761Z,99085.20
2019-03-16T22:50:36.658Z,99086.39
2019-03-16T22:53:25.864Z,99088.92
2019-03-16T22:55:57.570Z,99084.57
2019-03-16T22:58:29.327Z,99079.78
2019-03-16T23:01:01.359Z,99063.35
2019-03-16T23:03:33.332Z,99070.02
2019-03-16T23:06:05.247Z,99077.22
2019-03-16T23:08:37.680Z,99076.14
2019-03-16T23:11:09.718Z,99058.66
2019-03-16T23:13:41.403Z,99064.36
2019-03-16T23:16:12.952Z,99055.94
2019-03-16T23:18:45.271Z,99054.39
2019-03-16T23:21:17.342Z,99058.17
2019-03-16T23:23:49.092Z,99054.94
2019-03-16T23:26:20.883Z,99066.10
2019-03-16T23:28:52.740Z,99055.48
2019-03-16T23:31:24.522Z,99057.98
2019-03-16T23:33:56.429Z,99056.95
2019-03-16T23:36:28.198Z,99054.67
2019-03-16T23:39:02.263Z,99059.50
2019-03-16T23:41:33.412Z,99050.57
2019-03-16T23:44:05.167Z,99049.76
2019-03-16T23:46:36.677Z,99049.21
2019-03-16T23:49:11.272Z,99044.70
2019-03-16T23:51:43.058Z,99047.41
2019-03-16T23:54:17.728Z,99042.98
2019-03-16T23:56:49.462Z,99042.31
2019-03-16T23:59:21.171Z,99038.09
